createdAt,value
2017-08-04T00:00:21.925Z,79.2
2017-08-04T00:01:23.312Z,78.2
2017-08-04T00:02:24.685Z,79.7
2017-08-04T00:03:26.087Z,80.0
2017-08-04T00:04:27.467Z,80.8
2017-08-04T00:05:28.856Z,79.8
2017-08-04T00:06:31.236Z,78.8
2017-08-04T00:07:32.626Z,79.7
2017-08-04T00:08:34.006Z,79.2
2017-08-04T00:09:35.387Z,79.0
2017-08-04T00:10:36.780Z,78.1
2017-08-04T00:11:38.150Z,77.9
2017-08-04T00:12:39.542Z,77.6
2017-08-04T00:13:40.957Z,77.7
2017-08-04T00:14:42.349Z,77.9
2017-08-04T00:15:43.735Z,78.2
2017-08-04T00:16:45.118Z,77.9
2017-08-04T00:17:46.501Z,77.6
2017-08-04T00:18:47.899Z,76.8
2017-08-04T00:19:49.277Z,76.8
2017-08-04T00:20:50.684Z,76.6
2017-08-04T00:21:52.069Z,77.0
2017-08-04T00:22:53.457Z,77.0
2017-08-04T00:23:54.836Z,76.9
2017-08-04T00:24:56.232Z,77.6
2017-08-04T00:25:57.607Z,77.9
2017-08-04T00:26:59.000Z,76.8
2017-08-04T00:28:00.371Z,77.4
2017-08-04T00:29:01.764Z,77.3
2017-08-04T00:30:03.149Z,78.2
2017-08-04T00:31:04.526Z,78.0
2017-08-04T00:32:05.946Z,77.1
2017-08-04T00:33:07.338Z,77.7
2017-08-04T00:34:08.708Z,76.8
2017-08-04T00:35:10.101Z,76.8
2017-08-04T00:36:11.503Z,78.2
2017-08-04T00:37:12.917Z,77.9
2017-08-04T00:38:14.322Z,78.6
2017-08-04T00:39:15.721Z,78.5
2017-08-04T00:40:17.090Z,78.9
2017-08-04T00:41:18.472Z,77.9
2017-08-04T00:42:19.865Z,77.4
2017-08-04T00:43:21.241Z,78.5
2017-08-04T00:44:22.617Z,78.6
2017-08-04T00:45:24.004Z,78.3
2017-08-04T00:46:25.397Z,78.3
2017-08-04T00:47:26.784Z,79.0
2017-08-04T00:48:28.159Z,79.1
2017-08-04T00:49:29.558Z,79.0
2017-08-04T00:50:30.945Z,78.5
2017-08-04T00:51:32.327Z,78.9
2017-08-04T00:52:33.704Z,76.7
2017-08-04T00:53:35.099Z,75.1
2017-08-04T00:54:36.476Z,74.6
2017-08-04T00:55:37.858Z,75.6
2017-08-04T00:56:39.297Z,75.8
2017-08-04T00:57:40.691Z,76.5
2017-08-04T00:58:42.072Z,76.8
2017-08-04T00:59:43.464Z,76.6
2017-08-04T01:00:44.863Z,76.9
2017-08-04T01:01:46.302Z,77.1
2017-08-04T01:02:47.693Z,76.9
2017-08-04T01:03:49.078Z,77.4
2017-08-04T01:04:50.461Z,77.2
2017-08-04T01:05:51.850Z,77.6
2017-08-04T01:06:53.278Z,77.6
2017-08-04T01:07:54.710Z,78.1
2017-08-04T01:08:56.108Z,79.2
2017-08-04T01:09:57.482Z,79.1
2017-08-04T01:10:58.861Z,79.2
2017-08-04T01:12:00.247Z,79.7
2017-08-04T01:13:01.683Z,80.0
2017-08-04T01:14:03.077Z,79.4
2017-08-04T01:15:04.472Z,79.9
2017-08-04T01:16:05.865Z,79.4
2017-08-04T01:17:07.244Z,79.0
2017-08-04T01:18:08.747Z,78.2
2017-08-04T01:19:10.167Z,78.1
2017-08-04T01:20:11.583Z,79.2
2017-08-04T01:21:12.973Z,80.0
2017-08-04T01:22:14.356Z,78.9
2017-08-04T01:23:15.764Z,79.1
2017-08-04T01:24:17.178Z,76.4
2017-08-04T01:25:18.588Z,77.7
2017-08-04T01:26:19.979Z,77.9
2017-08-04T01:27:21.357Z,78.3
2017-08-04T01:28:22.756Z,78.5
2017-08-04T01:29:24.152Z,77.5
2017-08-04T01:30:25.620Z,78.3
2017-08-04T01:31:26.977Z,78.0
2017-08-04T01:32:28.352Z,78.2
2017-08-04T01:33:29.793Z,78.2
2017-08-04T01:34:31.203Z,78.2
2017-08-04T01:35:32.633Z,78.1
2017-08-04T01:36:34.056Z,78.3
2017-08-04T01:37:35.479Z,78.3
2017-08-04T01:38:36.918Z,78.4
2017-08-04T01:39:38.392Z,78.4
2017-08-04T01:40:39.863Z,79.0
2017-08-04T01:41:41.282Z,78.4
2017-08-04T01:42:42.715Z,78.8
2017-08-04T01:43:44.146Z,79.4
2017-08-04T01:44:45.605Z,79.0
2017-08-04T01:45:46.995Z,78.3
2017-08-04T01:46:48.385Z,78.7
2017-08-04T01:47:49.766Z,76.9
2017-08-04T01:48:51.176Z,76.8
2017-08-04T01:49:52.615Z,78.1
2017-08-04T01:50:54.057Z,78.9
2017-08-04T01:51:55.454Z,78.8
2017-08-04T01:52:57.852Z,78.1
2017-08-04T01:53:59.233Z,77.1
2017-08-04T01:55:00.612Z,77.3
2017-08-04T01:56:01.996Z,77.7
2017-08-04T01:57:03.403Z,78.1
2017-08-04T01:58:04.782Z,78.9
2017-08-04T01:59:07.253Z,79.1
2017-08-04T02:00:08.635Z,79.3
2017-08-04T02:01:10.024Z,79.2
2017-08-04T02:02:11.407Z,80.0
2017-08-04T02:03:12.897Z,79.0
2017-08-04T02:04:14.280Z,79.4
2017-08-04T02:05:15.666Z,79.9
2017-08-04T02:06:17.046Z,79.7
2017-08-04T02:07:19.430Z,80.7
2017-08-04T02:08:20.805Z,81.2
2017-08-04T02:09:22.203Z,80.8
2017-08-04T02:10:23.593Z,81.0
2017-08-04T02:11:24.978Z,81.1
2017-08-04T02:12:26.355Z,81.3
2017-08-04T02:13:27.739Z,80.8
2017-08-04T02:14:29.119Z,80.6
2017-08-04T02:15:30.503Z,80.9
2017-08-04T02:16:31.882Z,80.2
2017-08-04T02:17:33.303Z,78.7
2017-08-04T02:18:34.773Z,78.8
2017-08-04T02:19:36.195Z,77.8
2017-08-04T02:20:37.578Z,76.3
2017-08-04T02:21:38.970Z,77.1
2017-08-04T02:22:40.346Z,77.7
2017-08-04T02:23:41.757Z,77.5
2017-08-04T02:24:43.149Z,76.6
2017-08-04T02:25:44.532Z,77.8
2017-08-04T02:26:45.909Z,77.1
2017-08-04T02:27:47.291Z,77.2
2017-08-04T02:28:48.746Z,78.1
2017-08-04T02:29:50.168Z,78.5
2017-08-04T02:30:51.547Z,78.1
2017-08-04T02:31:52.944Z,77.2
2017-08-04T02:32:54.319Z,77.6
2017-08-04T02:33:55.731Z,77.9
2017-08-04T02:34:57.118Z,79.1
2017-08-04T02:35:58.500Z,79.0
2017-08-04T02:36:59.878Z,79.1
2017-08-04T02:38:01.268Z,79.1
2017-08-04T02:39:02.740Z,78.5
2017-08-04T02:40:04.175Z,78.6
2017-08-04T02:41:05.612Z,78.5
2017-08-04T02:42:06.994Z,79.1
2017-08-04T02:43:08.370Z,79.4
2017-08-04T02:44:09.763Z,79.7
2017-08-04T02:45:11.169Z,80.6
2017-08-04T02:46:12.551Z,80.5
2017-08-04T02:47:13.960Z,80.1
2017-08-04T02:48:16.345Z,79.6
2017-08-04T02:49:17.792Z,79.8
2017-08-04T02:50:19.210Z,80.9
2017-08-04T02:51:20.612Z,80.6
2017-08-04T02:52:21.977Z,80.6
2017-08-04T02:53:23.353Z,80.2
2017-08-04T02:54:24.785Z,80.3
2017-08-04T02:55:26.181Z,80.6
2017-08-04T02:56:27.561Z,80.8
2017-08-04T02:57:28.941Z,80.7
2017-08-04T02:58:30.356Z,80.5
2017-08-04T02:59:31.728Z,80.9
2017-08-04T03:00:33.150Z,81.2
2017-08-04T03:01:34.584Z,81.8
2017-08-04T03:02:35.983Z,82.2
2017-08-04T03:03:37.371Z,82.5
2017-08-04T03:04:38.760Z,82.1
2017-08-04T03:05:40.230Z,82.5
2017-08-04T03:06:41.622Z,82.3
2017-08-04T03:07:43.004Z,82.3
2017-08-04T03:08:44.397Z,82.2
2017-08-04T03:09:45.781Z,82.2
2017-08-04T03:10:47.181Z,82.3
2017-08-04T03:11:48.562Z,82.0
2017-08-04T03:12:49.960Z,82.8
2017-08-04T03:13:51.326Z,83.6
2017-08-04T03:14:52.718Z,83.4
2017-08-04T03:15:54.135Z,83.5
2017-08-04T03:16:55.530Z,83.2
2017-08-04T03:17:56.914Z,82.7
2017-08-04T03:18:58.292Z,82.3
2017-08-04T03:19:59.674Z,82.3
2017-08-04T03:21:01.123Z,82.3
2017-08-04T03:22:02.551Z,82.2
2017-08-04T03:23:03.946Z,81.8
2017-08-04T03:24:05.349Z,82.1
2017-08-04T03:25:06.733Z,82.2
2017-08-04T03:26:08.122Z,82.1
2017-08-04T03:27:09.512Z,82.9
2017-08-04T03:28:10.896Z,83.8
2017-08-04T03:29:12.285Z,82.9
2017-08-04T03:30:13.674Z,83.1
2017-08-04T03:31:15.216Z,83.1
2017-08-04T03:32:16.570Z,82.9
2017-08-04T03:33:18.031Z,83.1
2017-08-04T03:34:19.445Z,82.8
2017-08-04T03:35:20.830Z,83.0
2017-08-04T03:36:22.217Z,83.1
2017-08-04T03:37:23.615Z,83.6
2017-08-04T03:38:25.038Z,83.7
2017-08-04T03:39:26.462Z,83.7
2017-08-04T03:40:27.841Z,83.1
2017-08-04T03:41:29.241Z,82.8
2017-08-04T03:42:30.616Z,82.3
2017-08-04T03:43:32.003Z,83.1
2017-08-04T03:44:33.485Z,83.6
2017-08-04T03:45:34.916Z,83.5
2017-08-04T03:46:36.304Z,83.3
2017-08-04T03:47:37.699Z,83.3
2017-08-04T03:48:39.083Z,82.8
2017-08-04T03:49:40.484Z,83.6
2017-08-04T03:50:41.879Z,83.9
2017-08-04T03:51:44.272Z,83.2
2017-08-04T03:52:45.662Z,83.0
2017-08-04T03:53:47.063Z,83.7
2017-08-04T03:54:48.455Z,84.3
2017-08-04T03:55:49.843Z,84.0
2017-08-04T03:56:51.220Z,84.1
2017-08-04T03:57:52.606Z,84.0
2017-08-04T03:58:54.023Z,84.0
2017-08-04T03:59:55.428Z,84.2
2017-08-04T04:00:56.812Z,84.5
2017-08-04T04:01:58.208Z,84.6
2017-08-04T04:02:59.591Z,83.9
2017-08-04T04:04:01.014Z,84.0
2017-08-04T04:05:02.460Z,84.2
2017-08-04T04:06:03.849Z,84.1
2017-08-04T04:07:05.237Z,83.5
2017-08-04T04:08:06.636Z,83.9
2017-08-04T04:09:08.051Z,83.9
2017-08-04T04:10:09.449Z,83.9
2017-08-04T04:11:10.845Z,83.7
2017-08-04T04:12:12.233Z,83.7
2017-08-04T04:13:13.626Z,84.1
2017-08-04T04:14:15.024Z,84.4
2017-08-04T04:15:16.509Z,84.0
2017-08-04T04:16:17.963Z,83.9
2017-08-04T04:17:19.369Z,84.0
2017-08-04T04:18:20.738Z,84.2
2017-08-04T04:19:22.132Z,84.2
2017-08-04T04:20:23.525Z,84.6
2017-08-04T04:21:24.943Z,84.4
2017-08-04T04:22:26.339Z,83.7
2017-08-04T04:23:27.742Z,84.2
2017-08-04T04:24:29.148Z,84.3
2017-08-04T04:25:30.606Z,83.8
2017-08-04T04:26:32.049Z,83.7
2017-08-04T04:27:33.439Z,83.6
2017-08-04T04:28:34.891Z,84.2
2017-08-04T04:29:36.335Z,83.7
2017-08-04T04:30:37.731Z,83.9
2017-08-04T04:31:39.221Z,82.1
2017-08-04T04:32:40.600Z,80.2
2017-08-04T04:33:42.004Z,80.5
2017-08-04T04:34:43.440Z,80.4
2017-08-04T04:35:44.939Z,79.6
2017-08-04T04:36:46.369Z,79.9
2017-08-04T04:37:47.789Z,80.3
2017-08-04T04:38:49.227Z,77.9
2017-08-04T04:39:50.738Z,77.3
2017-08-04T04:40:52.206Z,78.9
2017-08-04T04:41:53.692Z,79.3
2017-08-04T04:42:55.090Z,78.1
2017-08-04T04:43:56.540Z,77.0
2017-08-04T04:44:58.043Z,77.1
2017-08-04T04:45:59.560Z,77.3
2017-08-04T04:47:00.956Z,77.6
2017-08-04T04:48:02.382Z,78.6
2017-08-04T04:49:03.819Z,78.5
2017-08-04T04:50:05.278Z,77.4
2017-08-04T04:51:06.699Z,78.1
2017-08-04T04:52:08.135Z,78.5
2017-08-04T04:53:09.525Z,77.6
2017-08-04T04:54:10.952Z,77.6
2017-08-04T04:55:12.448Z,77.2
2017-08-04T04:56:14.002Z,78.0
2017-08-04T04:57:15.447Z,77.8
2017-08-04T04:58:16.886Z,77.1
2017-08-04T04:59:18.323Z,77.8
2017-08-04T05:00:19.821Z,77.8
2017-08-04T05:01:21.243Z,78.0
2017-08-04T05:02:22.655Z,78.5
2017-08-04T05:03:24.041Z,77.3
2017-08-04T05:04:25.437Z,77.9
2017-08-04T05:05:26.820Z,77.2
2017-08-04T05:06:28.238Z,77.5
2017-08-04T05:07:29.706Z,77.2
2017-08-04T05:08:31.103Z,77.6
2017-08-04T05:09:32.485Z,77.8
2017-08-04T05:10:33.928Z,78.5
2017-08-04T05:11:35.342Z,78.9
2017-08-04T05:12:36.736Z,78.6
2017-08-04T05:13:38.124Z,79.2
2017-08-04T05:14:39.512Z,79.1
2017-08-04T05:15:40.905Z,77.7
2017-08-04T05:16:42.337Z,77.1
2017-08-04T05:17:43.774Z,77.4
2017-08-04T05:18:45.175Z,77.7
2017-08-04T05:19:46.560Z,77.8
2017-08-04T05:20:48.006Z,78.0
2017-08-04T05:21:49.385Z,77.9
2017-08-04T05:22:50.822Z,78.2
2017-08-04T05:23:52.205Z,77.3
2017-08-04T05:24:53.597Z,77.4
2017-08-04T05:25:55.036Z,77.4
2017-08-04T05:26:56.394Z,77.4
2017-08-04T05:27:57.814Z,77.3
2017-08-04T05:28:59.214Z,78.1
2017-08-04T05:30:00.592Z,78.3
2017-08-04T05:31:03.031Z,78.1
2017-08-04T05:32:04.462Z,78.6
2017-08-04T05:33:05.929Z,78.2
2017-08-04T05:34:07.311Z,77.9
2017-08-04T05:35:08.722Z,78.3
2017-08-04T05:36:10.121Z,78.2
2017-08-04T05:37:11.688Z,78.7
2017-08-04T05:38:13.108Z,78.7
2017-08-04T05:39:14.485Z,78.7
2017-08-04T05:40:15.879Z,79.2
2017-08-04T05:41:17.266Z,79.2
2017-08-04T05:42:18.693Z,79.1
2017-08-04T05:43:20.128Z,78.5
2017-08-04T05:44:21.519Z,78.2
2017-08-04T05:45:22.970Z,78.3
2017-08-04T05:46:24.408Z,78.3
2017-08-04T05:47:25.812Z,78.5
2017-08-04T05:48:27.330Z,78.3
2017-08-04T05:49:28.730Z,78.1
2017-08-04T05:50:30.133Z,77.9
2017-08-04T05:51:31.592Z,77.5
2017-08-04T05:52:33.091Z,77.6
2017-08-04T05:53:34.514Z,78.5
2017-08-04T05:54:35.914Z,78.2
2017-08-04T05:55:37.311Z,78.2
2017-08-04T05:56:38.695Z,78.7
2017-08-04T05:57:40.092Z,78.5
2017-08-04T05:58:41.510Z,78.5
2017-08-04T05:59:42.919Z,78.5
2017-08-04T06:00:44.319Z,78.1
2017-08-04T06:01:46.772Z,77.7
2017-08-04T06:02:48.214Z,78.1
2017-08-04T06:03:49.603Z,78.0
2017-08-04T06:04:50.984Z,78.1
2017-08-04T06:05:52.389Z,78.1
2017-08-04T06:06:53.863Z,77.7
2017-08-04T06:07:55.297Z,78.4
2017-08-04T06:08:56.741Z,78.3
2017-08-04T06:09:58.127Z,78.2
2017-08-04T06:10:59.522Z,78.2
2017-08-04T06:12:01.016Z,78.3
2017-08-04T06:13:02.467Z,78.0
2017-08-04T06:14:03.930Z,77.7
2017-08-04T06:15:05.318Z,78.7
2017-08-04T06:16:06.736Z,78.7
2017-08-04T06:17:08.145Z,78.3
2017-08-04T06:18:09.593Z,77.6
2017-08-04T06:19:11.000Z,77.8
2017-08-04T06:20:12.539Z,77.5
2017-08-04T06:21:13.925Z,77.6
2017-08-04T06:22:15.381Z,77.6
2017-08-04T06:23:16.832Z,78.3
2017-08-04T06:24:18.230Z,78.0
2017-08-04T06:25:19.623Z,77.3
2017-08-04T06:26:21.018Z,77.5
2017-08-04T06:27:22.441Z,77.1
2017-08-04T06:28:23.840Z,76.5
2017-08-04T06:29:25.247Z,76.9
2017-08-04T06:30:26.704Z,77.2
2017-08-04T06:31:28.095Z,77.2
2017-08-04T06:32:29.490Z,77.4
2017-08-04T06:33:30.888Z,77.1
2017-08-04T06:34:32.437Z,77.2
2017-08-04T06:35:33.828Z,77.2
2017-08-04T06:36:36.225Z,77.4
2017-08-04T06:37:37.626Z,77.4
2017-08-04T06:38:39.048Z,76.6
2017-08-04T06:39:40.460Z,77.1
2017-08-04T06:40:41.857Z,76.5
2017-08-04T06:41:43.292Z,76.4
2017-08-04T06:42:45.701Z,76.3
2017-08-04T06:43:47.085Z,76.6
2017-08-04T06:44:48.486Z,76.6
2017-08-04T06:45:49.903Z,75.4
2017-08-04T06:46:51.295Z,75.2
2017-08-04T06:47:52.699Z,75.3
2017-08-04T06:48:54.126Z,75.0
2017-08-04T06:49:55.555Z,74.6
2017-08-04T06:50:56.956Z,74.2
2017-08-04T06:51:58.375Z,74.2
2017-08-04T06:52:59.846Z,74.8
2017-08-04T06:54:01.271Z,74.7
2017-08-04T06:55:02.688Z,75.0
2017-08-04T06:56:04.079Z,75.5
2017-08-04T06:57:05.555Z,75.1
2017-08-04T06:58:06.950Z,74.8
2017-08-04T06:59:08.445Z,74.8
2017-08-04T07:00:09.997Z,75.4
2017-08-04T07:01:31.238Z,74.8
2017-08-04T07:02:32.623Z,75.6
2017-08-04T07:03:34.027Z,74.8
2017-08-04T07:04:35.421Z,74.7
2017-08-04T07:05:36.828Z,74.9
2017-08-04T07:06:38.226Z,74.7
2017-08-04T07:07:39.669Z,75.5
2017-08-04T07:08:41.076Z,73.9
2017-08-04T07:09:42.516Z,74.5
2017-08-04T07:10:43.912Z,74.3
2017-08-04T07:11:45.317Z,73.3
2017-08-04T07:12:46.697Z,73.3
2017-08-04T07:13:48.117Z,73.5
2017-08-04T07:14:49.514Z,73.9
2017-08-04T07:15:50.914Z,74.5
2017-08-04T07:16:52.302Z,74.2
2017-08-04T07:17:53.703Z,74.0
2017-08-04T07:18:55.095Z,74.2
2017-08-04T07:19:56.500Z,73.4
2017-08-04T07:20:57.888Z,73.2
2017-08-04T07:21:59.292Z,73.1
2017-08-04T07:23:00.691Z,73.2
2017-08-04T07:24:02.097Z,72.8
2017-08-04T07:25:03.501Z,72.7
2017-08-04T07:26:04.898Z,72.5
2017-08-04T07:27:06.308Z,71.5
2017-08-04T07:28:07.713Z,71.5
2017-08-04T07:29:09.143Z,71.7
2017-08-04T07:30:10.536Z,71.9
2017-08-04T07:31:11.932Z,73.3
2017-08-04T07:32:13.327Z,72.4
2017-08-04T07:33:14.723Z,72.6
2017-08-04T07:34:16.126Z,71.5
2017-08-04T07:35:17.514Z,71.6
2017-08-04T07:36:18.923Z,71.7
2017-08-04T07:37:20.363Z,72.2
2017-08-04T07:38:21.748Z,71.5
2017-08-04T07:39:23.151Z,70.9
2017-08-04T07:40:24.770Z,71.1
2017-08-04T07:41:26.165Z,70.9
2017-08-04T07:42:27.641Z,71.0
2017-08-04T07:43:29.103Z,71.8
2017-08-04T07:44:30.517Z,72.4
2017-08-04T07:45:31.953Z,72.2
2017-08-04T07:46:33.356Z,71.7
2017-08-04T07:47:34.736Z,71.5
2017-08-04T07:48:36.148Z,71.2
2017-08-04T07:49:37.539Z,71.8
2017-08-04T07:50:38.942Z,71.8
2017-08-04T07:51:40.430Z,71.1
2017-08-04T07:52:41.866Z,71.1
2017-08-04T07:53:43.254Z,72.0
2017-08-04T07:54:44.685Z,71.4
2017-08-04T07:55:46.081Z,71.4
2017-08-04T07:56:47.565Z,71.7
2017-08-04T07:57:48.963Z,71.2
2017-08-04T07:58:50.358Z,71.2
2017-08-04T07:59:51.748Z,71.4
2017-08-04T08:01:31.318Z,70.9
2017-08-04T08:02:32.720Z,70.8
2017-08-04T08:03:34.120Z,70.0
2017-08-04T08:04:35.509Z,70.3
2017-08-04T08:05:36.931Z,70.6
2017-08-04T08:06:38.322Z,69.8
2017-08-04T08:07:39.718Z,69.8
2017-08-04T08:08:41.113Z,69.7
2017-08-04T08:09:42.511Z,69.5
2017-08-04T08:10:43.933Z,70.1
2017-08-04T08:11:45.327Z,70.2
2017-08-04T08:12:46.744Z,69.3
2017-08-04T08:13:48.141Z,69.6
2017-08-04T08:14:49.544Z,69.6
2017-08-04T08:15:51.949Z,69.7
2017-08-04T08:16:53.340Z,69.1
2017-08-04T08:17:54.736Z,68.6
2017-08-04T08:18:56.164Z,68.1
2017-08-04T08:19:57.566Z,66.5
2017-08-04T08:20:58.967Z,67.4
2017-08-04T08:22:00.364Z,67.7
2017-08-04T08:23:01.760Z,67.8
2017-08-04T08:24:03.182Z,67.1
2017-08-04T08:25:04.574Z,66.8
2017-08-04T08:26:05.970Z,66.4
2017-08-04T08:27:07.376Z,66.7
2017-08-04T08:28:09.163Z,66.7
2017-08-04T08:29:10.599Z,66.6
2017-08-04T08:30:12.006Z,66.7
2017-08-04T08:31:13.398Z,65.3
2017-08-04T08:32:14.859Z,65.1
2017-08-04T08:33:16.197Z,64.5
2017-08-04T08:34:17.634Z,64.1
2017-08-04T08:35:19.027Z,64.4
2017-08-04T08:36:20.440Z,62.8
2017-08-04T08:37:21.848Z,64.1
2017-08-04T08:38:23.254Z,63.0
2017-08-04T08:39:24.648Z,62.9
2017-08-04T08:40:26.049Z,62.9
2017-08-04T08:41:27.466Z,63.4
2017-08-04T08:42:28.880Z,62.7
2017-08-04T08:43:30.272Z,62.8
2017-08-04T08:44:31.713Z,62.5
2017-08-04T08:45:33.183Z,63.0
2017-08-04T08:46:34.581Z,62.9
2017-08-04T08:47:35.974Z,63.6
2017-08-04T08:48:37.372Z,64.1
2017-08-04T08:49:38.799Z,63.0
2017-08-04T08:50:40.209Z,63.4
2017-08-04T08:51:41.644Z,64.7
2017-08-04T08:52:43.045Z,64.0
2017-08-04T08:53:44.458Z,64.8
2017-08-04T08:54:45.876Z,65.3
2017-08-04T08:55:47.273Z,64.4
2017-08-04T08:56:48.691Z,64.3
2017-08-04T08:57:50.084Z,64.8
2017-08-04T08:58:51.521Z,64.8
2017-08-04T08:59:52.936Z,64.1
2017-08-04T09:01:31.330Z,63.2
2017-08-04T09:02:32.726Z,63.6
2017-08-04T09:03:35.144Z,64.8
2017-08-04T09:04:36.540Z,64.5
2017-08-04T09:05:37.941Z,64.7
2017-08-04T09:06:39.331Z,64.0
2017-08-04T09:07:40.735Z,64.8
2017-08-04T09:08:42.138Z,64.1
2017-08-04T09:09:43.531Z,64.7
2017-08-04T09:10:44.923Z,64.8
2017-08-04T09:11:46.345Z,65.1
2017-08-04T09:12:47.737Z,65.0
2017-08-04T09:13:49.217Z,65.4
2017-08-04T09:14:50.612Z,65.2
2017-08-04T09:15:52.020Z,65.6
2017-08-04T09:16:53.419Z,64.1
2017-08-04T09:17:54.828Z,65.5
2017-08-04T09:18:56.222Z,65.8
2017-08-04T09:19:57.626Z,65.7
2017-08-04T09:20:59.031Z,65.3
2017-08-04T09:22:00.445Z,64.3
2017-08-04T09:23:01.859Z,65.4
2017-08-04T09:24:03.266Z,64.4
2017-08-04T09:25:04.689Z,64.8
2017-08-04T09:26:06.087Z,64.2
2017-08-04T09:27:07.492Z,64.4
2017-08-04T09:28:08.900Z,64.2
2017-08-04T09:29:10.290Z,64.7
2017-08-04T09:30:11.700Z,63.4
2017-08-04T09:31:18.415Z,62.8
2017-08-04T09:32:19.713Z,63.1
2017-08-04T09:33:21.126Z,63.9
2017-08-04T09:34:22.526Z,63.3
2017-08-04T09:35:23.921Z,62.3
2017-08-04T09:36:25.328Z,63.8
2017-08-04T09:37:26.724Z,64.3
2017-08-04T09:38:28.134Z,64.3
2017-08-04T09:39:29.532Z,63.5
2017-08-04T09:40:31.010Z,63.2
2017-08-04T09:41:32.496Z,63.5
2017-08-04T09:42:33.889Z,63.3
2017-08-04T09:43:35.283Z,63.6
2017-08-04T09:44:36.684Z,63.3
2017-08-04T09:45:38.087Z,63.7
2017-08-04T09:46:39.503Z,62.9
2017-08-04T09:47:40.977Z,63.7
2017-08-04T09:48:42.378Z,63.8
2017-08-04T09:49:43.778Z,62.9
2017-08-04T09:50:45.175Z,62.9
2017-08-04T09:51:46.577Z,62.9
2017-08-04T09:52:48.041Z,63.3
2017-08-04T09:53:49.478Z,63.3
2017-08-04T09:54:50.881Z,63.5
2017-08-04T09:55:52.313Z,62.9
2017-08-04T09:56:53.718Z,62.3
2017-08-04T09:57:55.118Z,63.4
2017-08-04T09:58:56.527Z,63.4
2017-08-04T09:59:57.970Z,62.7
2017-08-04T10:01:31.533Z,64.4
2017-08-04T10:02:32.940Z,62.5
2017-08-04T10:03:34.351Z,63.0
2017-08-04T10:04:35.744Z,62.4
2017-08-04T10:05:37.209Z,62.8
2017-08-04T10:06:38.626Z,62.5
2017-08-04T10:07:40.086Z,61.9
2017-08-04T10:08:41.472Z,62.5
2017-08-04T10:09:42.875Z,62.7
2017-08-04T10:10:44.261Z,61.6
2017-08-04T10:11:45.667Z,62.2
2017-08-04T10:12:47.058Z,62.2
2017-08-04T10:13:48.468Z,62.2
2017-08-04T10:14:49.887Z,60.6
2017-08-04T10:15:51.273Z,60.6
2017-08-04T10:16:52.663Z,60.3
2017-08-04T10:17:54.057Z,61.8
2017-08-04T10:18:55.449Z,61.2
2017-08-04T10:19:56.858Z,61.9
2017-08-04T10:20:58.257Z,61.4
2017-08-04T10:21:59.655Z,61.8
2017-08-04T10:23:01.045Z,61.0
2017-08-04T10:24:02.512Z,61.4
2017-08-04T10:25:04.065Z,61.2
2017-08-04T10:26:05.470Z,61.7
2017-08-04T10:27:06.898Z,60.7
2017-08-04T10:28:08.295Z,62.1
2017-08-04T10:29:09.691Z,60.7
2017-08-04T10:30:11.098Z,61.4
2017-08-04T10:31:12.504Z,61.5
2017-08-04T10:32:13.886Z,60.8
2017-08-04T10:33:15.282Z,61.0
2017-08-04T10:34:16.683Z,60.8
2017-08-04T10:35:18.094Z,60.3
2017-08-04T10:36:19.507Z,59.6
2017-08-04T10:37:21.007Z,59.6
2017-08-04T10:38:22.416Z,59.1
2017-08-04T10:39:23.812Z,60.0
2017-08-04T10:40:25.206Z,60.3
2017-08-04T10:41:26.602Z,60.7
2017-08-04T10:42:28.004Z,60.2
2017-08-04T10:43:29.391Z,60.5
2017-08-04T10:44:30.795Z,59.8
2017-08-04T10:45:32.183Z,59.8
2017-08-04T10:46:33.723Z,60.2
2017-08-04T10:47:35.118Z,59.8
2017-08-04T10:48:37.514Z,60.6
2017-08-04T10:49:38.910Z,59.5
2017-08-04T10:50:40.308Z,60.2
2017-08-04T10:51:41.742Z,59.1
2017-08-04T10:52:43.143Z,59.1
2017-08-04T10:53:44.543Z,58.5
2017-08-04T10:54:45.940Z,59.2
2017-08-04T10:55:47.463Z,59.2
2017-08-04T10:56:48.864Z,59.0
2017-08-04T10:57:50.265Z,58.8
2017-08-04T10:58:51.673Z,59.2
2017-08-04T10:59:53.068Z,59.4
2017-08-04T11:00:54.472Z,59.6
2017-08-04T11:01:55.865Z,59.5
2017-08-04T11:02:57.290Z,59.0
2017-08-04T11:03:58.690Z,59.6
2017-08-04T11:05:00.093Z,59.1
2017-08-04T11:06:01.489Z,59.3
2017-08-04T11:07:02.916Z,59.9
2017-08-04T11:08:04.343Z,59.5
2017-08-04T11:09:05.774Z,58.6
2017-08-04T11:10:07.142Z,59.5
2017-08-04T11:11:08.562Z,59.6
2017-08-04T11:12:09.943Z,59.8
2017-08-04T11:13:11.346Z,58.9
2017-08-04T11:14:12.734Z,58.6
2017-08-04T11:15:14.130Z,58.7
2017-08-04T11:16:15.528Z,58.3
2017-08-04T11:17:16.938Z,59.2
2017-08-04T11:18:18.355Z,59.5
2017-08-04T11:19:19.800Z,60.4
2017-08-04T11:20:21.193Z,60.8
2017-08-04T11:21:22.627Z,60.7
2017-08-04T11:22:24.042Z,60.7
2017-08-04T11:23:25.568Z,60.7
2017-08-04T11:24:26.998Z,60.8
2017-08-04T11:25:28.394Z,60.6
2017-08-04T11:26:29.797Z,60.3
2017-08-04T11:27:31.201Z,61.2
2017-08-04T11:28:32.587Z,60.6
2017-08-04T11:29:33.987Z,61.7
2017-08-04T11:30:35.382Z,61.6
2017-08-04T11:31:36.786Z,60.4
2017-08-04T11:32:38.252Z,60.8
2017-08-04T11:33:39.686Z,61.9
2017-08-04T11:34:41.099Z,60.8
2017-08-04T11:35:42.505Z,60.0
2017-08-04T11:36:43.892Z,60.1
2017-08-04T11:37:45.292Z,62.1
2017-08-04T11:38:46.685Z,60.7
2017-08-04T11:39:48.090Z,61.6
2017-08-04T11:40:49.480Z,64.5
2017-08-04T11:41:50.889Z,64.3
2017-08-04T11:42:52.313Z,61.9
2017-08-04T11:43:53.707Z,62.2
2017-08-04T11:44:55.165Z,62.2
2017-08-04T11:45:56.566Z,61.3
2017-08-04T11:46:57.969Z,62.1
2017-08-04T11:47:59.416Z,62.3
2017-08-04T11:49:00.818Z,62.4
2017-08-04T11:50:02.219Z,61.1
2017-08-04T11:51:03.625Z,61.1
2017-08-04T11:52:05.041Z,61.7
2017-08-04T11:53:06.451Z,60.6
2017-08-04T11:54:07.843Z,61.2
2017-08-04T11:55:09.238Z,61.8
2017-08-04T11:56:10.639Z,60.9
2017-08-04T11:57:12.032Z,60.5
2017-08-04T11:58:13.433Z,60.1
2017-08-04T11:59:14.833Z,59.8
2017-08-04T12:00:16.251Z,61.0
2017-08-04T12:01:17.655Z,61.1
2017-08-04T12:02:19.072Z,60.5
2017-08-04T12:03:20.479Z,60.1
2017-08-04T12:04:21.873Z,59.8
2017-08-04T12:05:23.267Z,60.2
2017-08-04T12:06:24.664Z,59.1
2017-08-04T12:07:26.061Z,61.7
2017-08-04T12:08:27.465Z,62.3
2017-08-04T12:09:28.891Z,61.3
2017-08-04T12:10:30.307Z,60.4
2017-08-04T12:11:31.703Z,58.2
2017-08-04T12:12:33.110Z,59.1
2017-08-04T12:13:34.547Z,57.8
2017-08-04T12:14:36.012Z,57.4
2017-08-04T12:15:37.395Z,57.6
2017-08-04T12:16:38.890Z,55.9
2017-08-04T12:17:40.295Z,57.1
2017-08-04T12:18:41.777Z,55.5
2017-08-04T12:19:43.182Z,54.5
2017-08-04T12:20:44.643Z,55.4
2017-08-04T12:21:46.100Z,56.4
2017-08-04T12:22:47.573Z,55.5
2017-08-04T12:23:48.983Z,54.8
2017-08-04T12:24:50.430Z,54.6
2017-08-04T12:25:51.875Z,54.6
2017-08-04T12:26:53.287Z,55.1
2017-08-04T12:27:54.694Z,52.7
2017-08-04T12:28:56.114Z,53.9
2017-08-04T12:29:57.519Z,53.1
2017-08-04T12:30:58.984Z,51.9
2017-08-04T12:32:00.405Z,52.9
2017-08-04T12:33:01.805Z,52.1
2017-08-04T12:34:03.236Z,49.7
2017-08-04T12:35:04.676Z,48.6
2017-08-04T12:36:06.091Z,47.9
2017-08-04T12:37:07.496Z,47.5
2017-08-04T12:38:08.903Z,48.3
2017-08-04T12:39:10.318Z,47.7
2017-08-04T12:40:11.723Z,48.5
2017-08-04T12:41:13.137Z,48.7
2017-08-04T12:42:14.544Z,47.4
2017-08-04T12:43:15.955Z,47.6
2017-08-04T12:44:17.377Z,46.7
2017-08-04T12:45:18.785Z,46.5
2017-08-04T12:46:20.199Z,46.8
2017-08-04T12:47:21.636Z,48.2
2017-08-04T12:48:23.051Z,48.6
2017-08-04T12:49:24.500Z,46.0
2017-08-04T12:50:25.966Z,47.4
2017-08-04T12:51:27.441Z,47.2
2017-08-04T12:52:28.887Z,48.0
2017-08-04T12:53:30.310Z,48.6
2017-08-04T12:54:31.766Z,49.5
2017-08-04T12:55:33.165Z,47.6
2017-08-04T12:56:34.616Z,48.3
2017-08-04T12:57:36.032Z,48.7
2017-08-04T12:58:37.446Z,47.9
2017-08-04T12:59:38.858Z,47.8
2017-08-04T13:00:40.290Z,48.1
2017-08-04T13:01:41.693Z,47.7
2017-08-04T13:02:44.107Z,47.7
2017-08-04T13:03:45.509Z,48.2
2017-08-04T13:04:46.918Z,46.8
2017-08-04T13:05:48.355Z,46.7
2017-08-04T13:06:49.814Z,47.5
2017-08-04T13:07:51.207Z,46.6
2017-08-04T13:08:52.611Z,47.5
2017-08-04T13:09:54.013Z,47.8
2017-08-04T13:10:55.436Z,48.1
2017-08-04T13:11:56.848Z,49.2
2017-08-04T13:12:58.255Z,48.4
2017-08-04T13:13:59.673Z,48.5
2017-08-04T13:15:01.086Z,48.5
2017-08-04T13:16:02.494Z,47.6
2017-08-04T13:17:03.910Z,46.4
2017-08-04T13:18:05.308Z,46.5
2017-08-04T13:19:06.732Z,46.5
2017-08-04T13:20:08.133Z,46.1
2017-08-04T13:21:09.555Z,45.8
2017-08-04T13:22:10.961Z,44.3
2017-08-04T13:23:12.375Z,44.6
2017-08-04T13:24:13.823Z,44.3
2017-08-04T13:25:15.231Z,46.1
2017-08-04T13:26:16.630Z,44.8
2017-08-04T13:27:18.058Z,45.8
2017-08-04T13:28:19.454Z,44.9
2017-08-04T13:29:20.876Z,43.0
2017-08-04T13:30:22.391Z,43.4
2017-08-04T13:31:23.834Z,42.9
2017-08-04T13:32:25.239Z,43.5
2017-08-04T13:33:26.650Z,43.3
2017-08-04T13:34:28.077Z,42.9
2017-08-04T13:35:29.484Z,43.2
2017-08-04T13:36:30.896Z,43.4
2017-08-04T13:37:32.328Z,43.1
2017-08-04T13:38:33.728Z,43.3
2017-08-04T13:39:35.274Z,43.2